Time;durP1;ratioP1;P1;durP2;ratioP2;P2;SDS_P1;SDS_P2;PMS_P1;PMS_P2;Temp;Humidity;BMP_temperature;BMP_pressure;BME280_temperature;BME280_humidity;BME280_pressure;Samples;Min_cycle;Max_cycle;Signal;HPM_P1;HPM_P2
2022/01/01 00:01:04;;;;;;;29.85;12.85;;;;;;;1.72;100.00;100351.44;10421729;28;20493;-78
2022/01/01 00:06:05;;;;;;;45.08;12.73;;;;;;;1.82;100.00;100364.69;10420831;28;20043;-78
2022/01/01 00:11:06;;;;;;;41.95;11.57;;;;;;;1.20;100.00;100252.25;10420732;28;20466;-78
2022/01/01 00:16:10;;;;;;;52.70;11.70;;;;;;;2.03;100.00;100388.47;10421370;28;20394;-78
2022/01/01 00:21:11;;;;;;;43.83;12.43;;;;;;;1.78;100.00;100334.44;10420399;28;20061;-78
2022/01/01 00:26:12;;;;;;;36.20;13.05;;;;;;;1.18;100.00;100226.22;10416905;28;20510;-77
2022/01/01 00:31:13;;;;;;;39.40;11.55;;;;;;;1.17;100.00;100213.22;10428014;28;20045;-74
2022/01/01 00:36:14;;;;;;;21.52;11.07;;;;;;;1.02;100.00;100197.72;10414380;28;20057;-79
2022/01/01 00:41:15;;;;;;;47.92;12.10;;;;;;;1.89;100.00;100333.66;10402783;28;20053;-79
2022/01/01 00:46:15;;;;;;;53.58;12.68;;;;;;;2.00;100.00;100349.41;10389595;28;20092;-79
2022/01/01 00:51:16;;;;;;;36.45;11.98;;;;;;;1.05;100.00;100202.72;10419933;28;20045;-79
2022/01/01 00:56:17;;;;;;;36.05;12.43;;;;;;;1.89;100.00;100328.44;10420076;28;20095;-79
2022/01/01 01:01:18;;;;;;;36.00;11.75;;;;;;;0.59;100.00;100108.41;10416713;28;20044;-79
2022/01/01 01:06:19;;;;;;;24.48;10.10;;;;;;;1.90;100.00;100298.66;10417299;28;20107;-79
2022/01/01 01:11:20;;;;;;;24.02;11.98;;;;;;;1.85;100.00;100287.66;10411831;28;20041;-79
2022/01/01 01:16:21;;;;;;;22.60;11.38;;;;;;;1.77;100.00;100262.88;10418439;28;20136;-79
2022/01/01 01:21:23;;;;;;;43.67;12.52;;;;;;;1.44;100.00;100224.31;10427714;28;20060;-79
2022/01/01 01:26:28;;;;;;;70.28;12.50;;;;;;;1.85;100.00;100285.06;10459626;28;20059;-80
2022/01/01 01:31:29;;;;;;;100.05;13.27;;;;;;;0.95;100.00;100138.91;10475289;28;20492;-79
2022/01/01 01:36:30;;;;;;;43.30;12.75;;;;;;;1.81;100.00;100297.53;10457357;28;20060;-79
2022/01/01 01:41:31;;;;;;;102.80;13.75;;;;;;;1.42;100.00;100231.44;10459475;28;20036;-79
2022/01/01 01:46:32;;;;;;;61.80;12.45;;;;;;;1.79;100.00;100295.03;10458648;28;20037;-79
2022/01/01 01:51:33;;;;;;;42.83;12.55;;;;;;;1.06;100.00;100193.91;10459248;28;20427;-79
2022/01/01 01:56:35;;;;;;;23.33;11.10;;;;;;;1.75;100.00;100306.69;10436613;28;20030;-79
2022/01/01 02:01:36;;;;;;;38.40;11.05;;;;;;;1.71;100.00;100292.16;10383801;28;20050;-79
2022/01/01 02:06:39;;;;;;;31.95;12.40;;;;;;;1.55;100.00;100288.97;10374626;28;20064;-79
2022/01/01 02:11:41;;;;;;;47.58;12.52;;;;;;;1.86;100.00;100323.41;10375624;28;20077;-79
2022/01/01 02:17:08;;;;;;;148.15;13.95;;;;;;;1.65;100.00;100304.88;10376146;28;20034;-79
2022/01/01 02:22:10;;;;;;;79.18;14.15;;;;;;;1.89;100.00;100344.13;10374019;28;20057;-79
2022/01/01 02:27:11;;;;;;;56.33;13.45;;;;;;;1.33;100.00;100271.38;10390494;28;20050;-79
2022/01/01 02:32:15;;;;;;;143.20;15.10;;;;;;;1.42;100.00;100268.09;10375412;28;20124;-79
2022/01/01 02:37:16;;;;;;;132.50;15.43;;;;;;;0.36;100.00;100113.53;10374782;28;20104;-79
2022/01/01 02:42:20;;;;;;;122.22;15.68;;;;;;;1.85;100.00;100338.25;10374964;28;20772;-75
2022/01/01 02:47:21;;;;;;;111.35;15.40;;;;;;;1.88;100.00;100345.06;10374357;28;20045;-79
2022/01/01 02:52:22;;;;;;;101.72;15.63;;;;;;;0.61;100.00;100169.28;10375052;28;20552;-79
2022/01/01 02:57:23;;;;;;;95.47;16.27;;;;;;;1.85;100.00;100351.38;10372868;28;20041;-79
2022/01/01 03:02:24;;;;;;;102.07;15.30;;;;;;;0.86;100.00;100233.72;10373663;28;20080;-79
2022/01/01 03:07:24;;;;;;;45.30;14.10;;;;;;;0.86;100.00;100255.47;10373261;28;20139;-79
2022/01/01 03:12:25;;;;;;;27.13;13.55;;;;;;;1.45;100.00;100329.84;10373525;28;20038;-79
2022/01/01 03:17:26;;;;;;;39.33;14.50;;;;;;;1.68;100.00;100365.69;10372736;28;20085;-79
2022/01/01 03:22:27;;;;;;;25.95;12.90;;;;;;;0.14;100.00;100114.16;10373544;28;20058;-79
2022/01/01 03:27:28;;;;;;;18.45;10.65;;;;;;;0.90;100.00;100254.34;10372301;28;20046;-79
2022/01/01 03:32:29;;;;;;;22.40;11.40;;;;;;;0.06;100.00;100137.41;10388371;28;20046;-79
2022/01/01 03:37:30;;;;;;;18.50;10.35;;;;;;;0.19;100.00;100155.66;10372114;28;20077;-79
2022/01/01 03:42:31;;;;;;;22.58;10.75;;;;;;;1.29;100.00;100325.72;10372180;28;20466;-79
2022/01/01 03:47:31;;;;;;;17.52;10.25;;;;;;;1.22;100.00;100302.69;10372077;28;20061;-79
2022/01/01 03:52:34;;;;;;;15.68;9.40;;;;;;;1.10;100.00;100299.16;10371310;28;20035;-80
2022/01/01 03:57:35;;;;;;;23.52;9.63;;;;;;;1.10;100.00;100310.47;10372850;28;20215;-79
2022/01/01 04:02:35;;;;;;;16.40;10.02;;;;;;;1.08;100.00;100314.16;10372147;28;20042;-79
2022/01/01 04:07:36;;;;;;;17.77;10.25;;;;;;;0.85;100.00;100290.44;10372513;28;20066;-79
2022/01/01 04:12:37;;;;;;;18.90;10.38;;;;;;;1.50;100.00;100407.13;10372135;28;20044;-79
2022/01/01 04:17:38;;;;;;;17.58;9.82;;;;;;;0.01;100.00;100138.66;10370289;28;20041;-79
2022/01/01 04:22:39;;;;;;;17.70;9.55;;;;;;;1.44;100.00;100375.31;10372459;28;20064;-78
2022/01/01 04:27:39;;;;;;;18.52;9.82;;;;;;;1.47;100.00;100396.88;10372567;28;20054;-79
2022/01/01 04:32:40;;;;;;;20.40;11.25;;;;;;;1.07;100.00;100336.00;10371423;28;20049;-79
2022/01/01 04:37:41;;;;;;;17.50;9.25;;;;;;;0.61;100.00;100272.06;10376797;28;20092;-79
2022/01/01 04:42:42;;;;;;;24.75;10.07;;;;;;;1.37;100.00;100406.28;10378499;28;20073;-79
2022/01/01 04:47:43;;;;;;;21.08;10.23;;;;;;;0.78;100.00;100283.97;10378336;28;20046;-79
2022/01/01 04:52:45;;;;;;;17.40;10.02;;;;;;;0.69;100.00;100266.31;10393884;28;20041;-79
2022/01/01 04:57:46;;;;;;;16.75;10.32;;;;;;;0.39;100.00;100219.56;10378223;28;20053;-79
2022/01/01 05:02:46;;;;;;;16.13;9.70;;;;;;;0.85;100.00;100307.91;10411479;28;20056;-79
2022/01/01 05:07:47;;;;;;;18.63;11.30;;;;;;;1.35;100.00;100376.78;10389349;28;20049;-79
2022/01/01 05:12:48;;;;;;;18.13;9.65;;;;;;;0.75;100.00;100271.13;10417201;28;20049;-78
2022/01/01 05:17:49;;;;;;;16.05;10.57;;;;;;;1.47;100.00;100383.78;10426735;28;20115;-86
2022/01/01 05:22:50;;;;;;;18.75;11.15;;;;;;;1.74;100.00;100430.72;10440379;28;20057;-87
2022/01/01 05:27:50;;;;;;;17.88;10.95;;;;;;;1.19;100.00;100344.78;10425061;28;20041;-87
2022/01/01 05:32:51;;;;;;;19.73;11.15;;;;;;;1.06;100.00;100313.41;10433319;28;20568;-86
2022/01/01 05:37:52;;;;;;;18.92;11.05;;;;;;;1.22;99.62;100348.00;10434309;28;20060;-77
2022/01/01 05:42:53;;;;;;;19.95;12.05;;;;;;;1.92;100.00;100474.91;10386304;28;20048;-71
2022/01/01 05:47:54;;;;;;;17.65;11.07;;;;;;;0.85;99.15;100279.16;10374709;28;20038;-75
2022/01/01 05:52:54;;;;;;;19.42;12.30;;;;;;;1.30;99.68;100322.16;10429540;28;20044;-74
2022/01/01 05:57:55;;;;;;;19.48;12.30;;;;;;;0.97;99.37;100256.53;10433312;28;20037;-74
2022/01/01 06:02:58;;;;;;;18.65;11.45;;;;;;;1.83;99.03;100390.78;10432245;28;20045;-74
2022/01/01 06:07:59;;;;;;;18.67;11.38;;;;;;;1.32;98.90;100322.88;10427437;28;20036;-73
2022/01/01 06:13:00;;;;;;;21.17;12.77;;;;;;;2.24;99.03;100441.97;10431638;28;20045;-75
2022/01/01 06:18:02;;;;;;;21.15;12.23;;;;;;;1.60;98.44;100302.56;10432043;28;20045;-77
2022/01/01 06:23:05;;;;;;;18.20;11.20;;;;;;;2.04;97.94;100369.22;10449499;28;20053;-75
2022/01/01 06:28:06;;;;;;;17.73;11.45;;;;;;;2.50;97.92;100445.28;10449942;28;20497;-75
2022/01/01 06:33:17;;;;;;;19.10;11.60;;;;;;;1.70;98.08;100323.66;10434267;28;20029;-76
2022/01/01 06:38:18;;;;;;;22.35;11.90;;;;;;;1.96;98.00;100343.56;10404740;28;20516;-75
2022/01/01 06:43:22;;;;;;;20.08;12.43;;;;;;;1.50;97.85;100251.84;10373030;28;20045;-70
2022/01/01 06:48:22;;;;;;;20.73;12.25;;;;;;;2.12;97.42;100347.66;10373483;28;20041;-74
2022/01/01 06:53:23;;;;;;;17.67;11.52;;;;;;;2.91;97.00;100445.75;10374231;28;20041;-74
2022/01/01 06:58:24;;;;;;;17.85;11.05;;;;;;;2.35;97.22;100345.97;10372751;28;20430;-74
2022/01/01 07:03:25;;;;;;;20.80;11.20;;;;;;;2.88;97.47;100417.13;10385288;28;20127;-75
2022/01/01 07:08:26;;;;;;;17.30;10.23;;;;;;;2.53;97.17;100330.63;10433385;28;20090;-74
2022/01/01 07:13:27;;;;;;;16.98;11.57;;;;;;;3.06;96.97;100413.09;10455233;28;20451;-74
2022/01/01 07:18:28;;;;;;;18.40;12.05;;;;;;;2.48;96.47;100292.50;10413119;28;20144;-75
2022/01/01 07:23:29;;;;;;;19.85;12.73;;;;;;;3.46;96.18;100433.63;10413303;28;20065;-73
2022/01/01 07:28:29;;;;;;;21.25;12.50;;;;;;;3.04;96.41;100338.88;10413544;28;20045;-73
2022/01/01 07:33:30;;;;;;;19.17;12.38;;;;;;;3.42;96.44;100379.69;10414235;28;20561;-73
2022/01/01 07:38:31;;;;;;;19.17;12.60;;;;;;;3.84;95.67;100416.63;10399098;28;20038;-74
2022/01/01 07:43:32;;;;;;;20.60;12.98;;;;;;;3.72;95.39;100393.97;10377765;28;20094;-76
2022/01/01 07:48:33;;;;;;;23.92;15.30;;;;;;;3.90;95.84;100416.13;10369110;28;20044;-74
2022/01/01 07:53:34;;;;;;;23.08;14.20;;;;;;;3.32;94.99;100292.06;10410896;28;20041;-75
2022/01/01 07:58:35;;;;;;;22.90;13.60;;;;;;;4.15;94.77;100380.81;10431752;28;20049;-74
2022/01/01 08:03:36;;;;;;;22.80;14.60;;;;;;;4.21;94.11;100334.75;10430677;28;20048;-73
2022/01/01 08:08:36;;;;;;;24.98;14.90;;;;;;;4.78;93.83;100392.19;10431888;28;20047;-74
2022/01/01 08:13:37;;;;;;;23.60;14.05;;;;;;;4.97;93.23;100394.13;10429054;28;20045;-75
2022/01/01 08:18:39;;;;;;;20.67;14.02;;;;;;;5.36;92.53;100388.19;10410065;28;20056;-72
2022/01/01 08:23:40;;;;;;;23.38;13.60;;;;;;;5.15;91.90;100343.47;10414423;28;20066;-72
2022/01/01 08:28:41;;;;;;;21.20;13.30;;;;;;;4.24;91.18;100193.34;10417798;28;20041;-71
2022/01/01 08:33:42;;;;;;;23.92;14.32;;;;;;;4.61;92.02;100210.41;10416776;28;20124;-71
2022/01/01 08:38:43;;;;;;;23.02;14.18;;;;;;;5.59;90.52;100307.09;10419962;28;20436;-75
2022/01/01 08:43:44;;;;;;;23.42;13.85;;;;;;;5.23;89.81;100185.59;10460975;28;20043;-75
2022/01/01 08:48:44;;;;;;;23.42;14.18;;;;;;;6.34;89.67;100318.78;10455655;28;20049;-74
2022/01/01 08:53:47;;;;;;;29.70;15.05;;;;;;;6.55;89.40;100318.59;10437903;28;20536;-74
2022/01/01 08:58:48;;;;;;;25.08;14.70;;;;;;;5.95;88.61;100186.97;10429075;28;20100;-75
2022/01/01 09:03:48;;;;;;;27.95;15.40;;;;;;;6.73;88.04;100277.31;10430416;28;20103;-74
2022/01/01 09:08:50;;;;;;;29.65;14.73;;;;;;;6.95;87.75;100275.28;10434565;28;20038;-74
2022/01/01 09:13:51;;;;;;;22.80;14.45;;;;;;;7.05;87.69;100239.91;10419772;28;20045;-74
2022/01/01 09:18:51;;;;;;;23.02;14.60;;;;;;;7.29;86.91;100264.94;10428798;28;20095;-75
2022/01/01 09:23:54;;;;;;;32.50;15.75;;;;;;;7.18;86.70;100205.22;10431803;28;20126;-74
2022/01/01 09:28:54;;;;;;;23.20;14.48;;;;;;;6.88;86.58;100131.59;10428550;28;20064;-74
2022/01/01 09:33:55;;;;;;;24.23;14.85;;;;;;;6.88;85.65;100113.09;10435193;28;20045;-75
2022/01/01 09:38:56;;;;;;;28.38;15.90;;;;;;;7.62;85.93;100221.13;10436857;28;20040;-75
2022/01/01 09:43:58;;;;;;;26.15;14.30;;;;;;;7.29;85.74;100120.41;10435014;28;20037;-74
2022/01/01 09:48:59;;;;;;;26.08;14.73;;;;;;;7.66;84.28;100155.59;10418544;28;20053;-74
2022/01/01 09:53:59;;;;;;;25.38;14.07;;;;;;;7.86;83.37;100178.19;10385257;28;20502;-75
2022/01/01 09:59:00;;;;;;;24.55;14.77;;;;;;;7.53;84.33;100135.66;10375347;28;20049;-72
2022/01/01 10:04:11;;;;;;;24.73;14.77;;;;;;;7.57;84.34;100160.00;10375703;28;20041;-74
2022/01/01 10:09:13;;;;;;;23.00;14.60;;;;;;;7.11;85.13;100097.66;10404264;28;20038;-72
2022/01/01 10:14:14;;;;;;;27.38;15.10;;;;;;;6.75;84.94;99984.13;10416119;28;20038;-74
2022/01/01 10:19:18;;;;;;;26.42;13.80;;;;;;;8.19;84.60;100197.75;10408951;28;20049;-74
2022/01/01 10:24:29;;;;;;;24.02;14.13;;;;;;;8.23;83.53;100156.78;10416276;28;20180;-74
2022/01/01 10:29:31;;;;;;;23.95;14.50;;;;;;;8.49;83.16;100173.63;10415552;28;20048;-74
2022/01/01 10:34:35;;;;;;;24.48;14.10;;;;;;;8.02;83.03;100121.94;10415109;28;20530;-73
2022/01/01 10:39:48;;;;;;;23.20;14.20;;;;;;;8.39;83.20;100189.66;10415414;28;20045;-73
2022/01/01 10:44:52;;;;;;;25.30;15.35;;;;;;;7.53;83.71;100034.38;10414863;28;20045;-73
2022/01/01 10:55:26;;;;;;;22.23;14.85;;;;;;;8.38;83.46;100153.56;10412764;28;19968;-73
2022/01/01 11:00:27;;;;;;;28.67;15.48;;;;;;;8.54;83.17;100143.06;10414863;28;20073;-74
2022/01/01 11:05:30;;;;;;;24.35;14.77;;;;;;;8.62;82.68;100150.22;10414174;28;20289;-73
2022/01/01 11:10:31;;;;;;;28.70;15.48;;;;;;;8.43;82.81;100124.81;10410995;28;20470;-73
2022/01/01 11:15:33;;;;;;;29.70;15.23;;;;;;;8.11;82.89;100069.91;10412426;28;20072;-76
2022/01/01 11:20:35;;;;;;;28.27;16.85;;;;;;;8.33;83.03;100098.44;10391582;28;20128;-74
2022/01/01 11:25:38;;;;;;;28.10;17.15;;;;;;;8.35;82.96;100085.06;10425274;28;20127;-72
2022/01/01 11:30:49;;;;;;;28.42;15.93;;;;;;;8.18;82.38;100062.97;10397043;28;20394;-72
2022/01/01 11:35:56;;;;;;;25.33;17.00;;;;;;;8.03;82.30;100041.59;10411516;28;20045;-78
2022/01/01 11:41:14;;;;;;;26.67;17.00;;;;;;;7.64;82.77;99999.75;10410528;28;20043;-72
2022/01/01 11:46:23;;;;;;;27.67;17.08;;;;;;;8.31;83.37;100131.34;10405300;28;20051;-72
2022/01/01 11:51:42;;;;;;;24.70;16.00;;;;;;;8.21;83.80;100134.09;10400971;28;20041;-78
2022/01/01 11:56:52;;;;;;;27.35;16.75;;;;;;;8.15;84.50;100117.03;10393227;28;20111;-72
2022/01/01 12:01:57;;;;;;;32.30;18.02;;;;;;;7.85;85.05;100088.44;10437956;28;20091;-71
2022/01/01 12:07:27;;;;;;;30.67;19.48;;;;;;;7.95;85.20;100103.22;10454484;28;20037;-75
2022/01/01 12:12:51;;;;;;;34.92;19.83;;;;;;;7.96;85.60;100120.75;10454100;28;20488;-75
2022/01/01 12:17:53;;;;;;;;;;;;;;;7.98;85.49;100117.94;10453475;28;20033;-70
2022/01/01 12:22:55;;;;;;;30.60;19.45;;;;;;;7.58;85.59;100110.59;10453941;28;19946;-71
2022/01/01 12:28:22;;;;;;;34.38;19.23;;;;;;;7.34;86.04;100063.66;10452780;28;20459;-70
2022/01/01 12:33:41;;;;;;;33.85;19.20;;;;;;;7.68;86.62;100122.72;10453479;28;20515;-70
2022/01/01 12:38:56;;;;;;;31.30;20.10;;;;;;;7.40;86.29;100065.69;10454006;28;20033;-72
2022/01/01 12:43:59;;;;;;;30.95;17.80;;;;;;;7.22;86.37;100061.25;10453904;28;20037;-74
2022/01/01 12:49:03;;;;;;;29.92;18.30;;;;;;;7.05;86.71;100028.59;10419218;28;20132;-73
2022/01/01 12:54:18;;;;;;;29.00;18.20;;;;;;;7.41;87.22;100099.06;10371157;28;20057;-73
2022/01/01 12:59:21;;;;;;;30.55;17.65;;;;;;;6.74;87.21;99991.22;10388883;28;20278;-73
2022/01/01 13:04:27;;;;;;;27.58;16.15;;;;;;;7.30;87.65;100103.59;10432507;28;20525;-74
2022/01/01 13:09:29;;;;;;;31.45;18.52;;;;;;;6.63;87.22;100036.31;10437726;28;20095;-74
2022/01/01 13:14:32;;;;;;;36.58;17.20;;;;;;;6.64;87.86;100067.00;10427005;28;20497;-73
2022/01/01 13:19:35;;;;;;;29.98;18.00;;;;;;;6.04;88.32;99993.66;10437456;28;20042;-73
2022/01/01 13:24:37;;;;;;;32.50;16.98;;;;;;;6.43;88.48;100088.38;10433631;28;20064;-76
2022/01/01 13:29:40;;;;;;;34.97;19.73;;;;;;;5.42;89.32;99953.81;10436252;28;20801;-75
2022/01/01 13:34:49;;;;;;;31.48;20.52;;;;;;;6.03;90.44;100073.72;10436224;28;20037;-75
2022/01/01 13:39:53;;;;;;;38.45;20.17;;;;;;;5.96;90.34;100079.72;10435691;28;20834;-75
2022/01/01 13:45:02;;;;;;;35.70;19.25;;;;;;;5.05;90.35;99959.03;10452018;28;20126;-74
2022/01/01 13:50:17;;;;;;;36.28;19.88;;;;;;;5.17;90.25;100018.44;10418351;28;20041;-75
2022/01/01 13:55:25;;;;;;;37.08;20.38;;;;;;;4.54;90.80;99965.44;10405077;28;20147;-75
2022/01/01 14:00:26;;;;;;;38.15;20.25;;;;;;;4.87;91.84;100074.72;10386990;28;20418;-75
2022/01/01 14:05:28;;;;;;;38.42;20.58;;;;;;;4.70;92.49;100057.84;10402189;28;20181;-76
2022/01/01 14:10:32;;;;;;;36.88;20.48;;;;;;;4.49;92.90;100026.38;10383972;28;20410;-75
2022/01/01 14:15:37;;;;;;;47.67;23.30;;;;;;;4.23;93.01;100012.06;10431724;28;20068;-75
2022/01/01 14:20:51;;;;;;;41.95;23.02;;;;;;;3.66;94.06;99930.31;10420292;28;20054;-75
2022/01/01 14:25:57;;;;;;;;;;;;;;;4.65;94.06;100072.38;10433458;28;20045;-74
2022/01/01 14:31:00;;;;;;;42.78;23.73;;;;;;;3.38;92.35;99916.09;10433004;28;19921;-74
2022/01/01 14:36:01;;;;;;;40.13;22.05;;;;;;;3.34;92.91;99961.97;10429717;28;20448;-74
2022/01/01 14:41:03;;;;;;;47.97;23.92;;;;;;;3.72;93.00;100055.88;10434558;28;20039;-74
2022/01/01 14:46:06;;;;;;;43.60;23.90;;;;;;;2.85;93.49;99945.13;10430080;28;20038;-74
2022/01/01 14:51:07;;;;;;;46.08;25.13;;;;;;;3.46;94.50;100034.47;10434175;28;20029;-74
2022/01/01 14:56:42;;;;;;;44.90;26.63;;;;;;;3.02;94.78;99949.81;10431852;28;20043;-74
2022/01/01 15:01:48;;;;;;;36.58;20.25;;;;;;;3.07;95.04;99959.91;10428485;28;20037;-74
2022/01/01 15:06:51;;;;;;;35.60;19.40;;;;;;;2.66;95.92;99878.50;10428048;28;20044;-74
2022/01/01 15:11:53;;;;;;;40.63;20.38;;;;;;;3.38;95.34;99994.88;10431108;28;20140;-74
2022/01/01 15:16:56;;;;;;;39.67;20.50;;;;;;;3.34;95.43;99980.34;10431837;28;20051;-75
2022/01/01 15:22:00;;;;;;;42.58;22.42;;;;;;;3.60;97.90;100001.78;10420693;28;20065;-75
2022/01/01 15:27:05;;;;;;;43.20;22.83;;;;;;;3.48;95.73;99977.41;10408053;28;20443;-74
2022/01/01 15:37:28;;;;;;;37.38;20.45;;;;;;;3.30;95.86;99976.34;10371967;28;20045;-72
2022/01/01 15:42:29;;;;;;;41.15;21.60;;;;;;;2.70;96.12;99890.38;10368124;28;20050;-75
2022/01/01 15:47:30;;;;;;;38.47;20.95;;;;;;;2.28;95.65;99824.84;10369997;28;20070;-73
2022/01/01 15:52:31;;;;;;;36.35;20.60;;;;;;;3.04;96.75;99971.47;10365005;28;20042;-74
2022/01/01 15:57:54;;;;;;;37.20;20.33;;;;;;;3.18;97.79;99968.53;10366364;28;20381;-77
2022/01/01 16:03:11;;;;;;;42.60;20.10;;;;;;;3.10;97.82;99942.09;10364219;28;20153;-74
2022/01/01 16:08:20;;;;;;;38.92;19.77;;;;;;;3.22;97.44;99969.09;10364308;28;20033;-76
2022/01/01 16:13:27;;;;;;;41.67;21.20;;;;;;;2.47;97.75;99852.13;10366619;28;20096;-74
2022/01/01 16:18:43;;;;;;;37.55;20.60;;;;;;;3.13;98.02;99954.97;10365052;28;20037;-74
2022/01/01 16:23:45;;;;;;;45.58;22.45;;;;;;;3.10;98.39;99968.34;10364212;28;20172;-73
2022/01/01 16:28:47;;;;;;;44.65;22.08;;;;;;;2.91;98.84;99929.72;10366292;28;20541;-75
2022/01/01 16:33:50;;;;;;;40.20;20.88;;;;;;;3.22;98.43;99984.84;10371611;28;20489;-77
2022/01/01 16:38:52;;;;;;;44.88;19.60;;;;;;;3.00;97.53;99956.97;10374468;28;20040;-81
2022/01/01 16:44:01;;;;;;;35.83;19.80;;;;;;;2.71;96.52;99949.72;10378363;28;20056;-79
2022/01/01 16:49:15;;;;;;;41.03;21.80;;;;;;;1.41;98.04;99748.19;10388228;28;20037;-75
2022/01/01 16:54:18;;;;;;;42.58;21.05;;;;;;;1.55;98.75;99754.91;10396384;28;20053;-75
2022/01/01 16:59:19;;;;;;;42.67;20.60;;;;;;;2.43;98.97;99896.13;10398327;28;20030;-75
2022/01/01 17:04:22;;;;;;;37.78;20.30;;;;;;;2.27;97.74;99875.59;10399963;28;20049;-75
2022/01/01 17:09:24;;;;;;;36.28;18.90;;;;;;;1.16;97.41;99722.31;10395444;28;20521;-76
2022/01/01 17:14:25;;;;;;;41.20;23.27;;;;;;;1.92;97.32;99854.06;10410834;28;20505;-76
2022/01/01 17:19:48;;;;;;;46.20;23.17;;;;;;;2.13;99.39;99891.59;10395880;28;20044;-77
2022/01/01 17:25:09;;;;;;;44.67;21.67;;;;;;;2.36;100.00;99873.97;10388958;28;20132;-78
2022/01/01 17:30:11;;;;;;;40.60;21.80;;;;;;;1.57;98.95;99724.22;10392125;28;20065;-76
2022/01/01 17:40:20;;;;;;;44.85;20.48;;;;;;;2.37;99.10;99853.88;10391426;28;20030;-76
2022/01/01 17:45:21;;;;;;;37.70;20.10;;;;;;;2.23;99.27;99805.19;10388069;28;20042;-75
2022/01/01 17:50:25;;;;;;;36.22;19.80;;;;;;;2.60;99.79;99841.44;10389170;28;20087;-75
2022/01/01 17:55:28;;;;;;;34.73;19.53;;;;;;;2.83;99.18;99856.06;10388027;28;20083;-74
2022/01/01 18:00:29;;;;;;;33.50;18.70;;;;;;;2.83;98.33;99857.84;10394308;28;20502;-75
2022/01/01 18:05:31;;;;;;;30.13;18.02;;;;;;;1.94;97.97;99718.53;10388331;28;20042;-76
2022/01/01 18:10:40;;;;;;;36.65;19.95;;;;;;;2.39;100.00;99783.78;10393648;28;20046;-76
2022/01/01 18:15:43;;;;;;;36.00;19.15;;;;;;;1.73;99.36;99643.44;10375990;28;20120;-75
2022/01/01 18:20:53;;;;;;;41.60;20.90;;;;;;;2.78;99.97;99794.47;10373455;28;20057;-75
2022/01/01 18:26:01;;;;;;;43.05;22.88;;;;;;;2.75;100.00;99785.06;10373249;28;20042;-75
2022/01/01 18:31:08;;;;;;;40.58;21.08;;;;;;;2.82;100.00;99809.00;10374952;28;20499;-75
2022/01/01 18:36:11;;;;;;;36.78;20.75;;;;;;;2.32;99.38;99732.84;10372974;28;20091;-75
2022/01/01 18:41:16;;;;;;;49.70;22.70;;;;;;;1.95;99.93;99683.56;10377688;28;20041;-77
2022/01/01 18:46:18;;;;;;;46.70;22.05;;;;;;;2.53;99.14;99756.41;10386176;28;20079;-76
2022/01/01 18:51:22;;;;;;;39.88;22.60;;;;;;;2.61;99.18;99767.91;10386884;28;20053;-76
2022/01/01 18:56:32;;;;;;;37.95;20.70;;;;;;;2.13;98.89;99687.22;10380642;28;20038;-75
2022/01/01 19:01:35;;;;;;;37.97;20.98;;;;;;;2.74;98.96;99802.59;10381893;28;20046;-75
2022/01/01 19:06:46;;;;;;;46.42;25.65;;;;;;;2.58;99.69;99831.09;10399205;28;20078;-75
2022/01/01 19:11:55;;;;;;;46.00;22.30;;;;;;;2.64;100.00;99791.25;10393460;28;20045;-74
2022/01/01 19:16:57;;;;;;;45.85;23.13;;;;;;;2.02;100.00;99680.28;10389122;28;20481;-76
2022/01/01 19:21:58;;;;;;;37.17;20.08;;;;;;;2.11;99.98;99678.66;10386187;28;20501;-76
2022/01/01 19:26:59;;;;;;;43.78;21.48;;;;;;;2.70;100.00;99774.97;10388983;28;20402;-75
2022/01/01 19:32:04;;;;;;;44.47;24.83;;;;;;;3.03;99.97;99843.06;10386026;28;20076;-74
2022/01/01 19:37:05;;;;;;;44.97;22.13;;;;;;;1.74;98.42;99603.22;10392397;28;20045;-75
2022/01/01 19:42:25;;;;;;;38.35;21.35;;;;;;;2.67;99.87;99762.13;10395736;28;20053;-75
2022/01/01 19:48:06;;;;;;;35.72;19.40;;;;;;;3.03;99.35;99787.94;10369761;28;20577;-75
2022/01/01 19:53:09;;;;;;;31.70;19.05;;;;;;;1.68;98.72;99590.63;10396095;28;20053;-76
2022/01/01 19:58:13;;;;;;;37.10;19.67;;;;;;;2.72;99.61;99761.72;10411867;28;20041;-76
2022/01/01 20:03:17;;;;;;;43.25;21.58;;;;;;;2.76;99.40;99775.41;10413246;28;20049;-75
2022/01/01 20:08:18;;;;;;;34.70;19.73;;;;;;;2.69;98.29;99757.59;10417802;28;20116;-76
2022/01/01 20:13:20;;;;;;;37.45;20.92;;;;;;;2.88;98.98;99780.44;10414570;28;20382;-75
2022/01/01 20:18:21;;;;;;;37.35;19.63;;;;;;;1.92;99.26;99613.09;10420861;28;20040;-75
2022/01/01 20:23:22;;;;;;;40.95;19.83;;;;;;;2.67;97.63;99701.81;10421173;28;20394;-75
2022/01/01 20:28:23;;;;;;;37.25;20.95;;;;;;;2.48;98.88;99762.88;10419592;28;20140;-75
2022/01/01 20:33:24;;;;;;;34.55;19.90;;;;;;;2.45;98.71;99709.84;10421293;28;20408;-75
2022/01/01 20:38:25;;;;;;;51.53;31.13;;;;;;;2.83;99.50;99748.50;10418931;28;20041;-75
2022/01/01 20:43:26;;;;;;;43.10;22.75;;;;;;;3.06;100.00;99769.31;10419978;28;20056;-75
2022/01/01 20:48:27;;;;;;;42.17;22.20;;;;;;;2.96;99.06;99756.13;10419792;28;20037;-75
2022/01/01 20:53:28;;;;;;;40.00;21.35;;;;;;;3.09;98.44;99738.38;10419828;28;20516;-77
2022/01/01 20:58:29;;;;;;;41.72;23.60;;;;;;;2.92;99.72;99762.63;10419433;28;20049;-75
2022/01/01 21:03:33;;;;;;;38.35;21.55;;;;;;;3.02;100.00;99737.25;10418349;28;20084;-75
2022/01/01 21:08:37;;;;;;;40.03;22.27;;;;;;;2.91;98.82;99716.38;10418423;28;20052;-75
2022/01/01 21:13:40;;;;;;;40.78;23.30;;;;;;;2.41;99.77;99616.72;10418874;28;20048;-75
2022/01/01 21:18:43;;;;;;;38.88;21.20;;;;;;;1.73;98.93;99502.03;10417131;28;20046;-74
2022/01/01 21:23:44;;;;;;;37.35;21.25;;;;;;;2.98;99.94;99696.50;10418828;28;20421;-74
2022/01/01 21:28:44;;;;;;;39.42;19.35;;;;;;;3.02;99.21;99692.66;10418757;28;20053;-74
2022/01/01 21:33:47;;;;;;;32.40;18.95;;;;;;;3.25;98.39;99718.66;10416829;28;20045;-74
2022/01/01 21:38:48;;;;;;;31.40;17.88;;;;;;;3.30;99.59;99734.81;10417336;28;20567;-75
2022/01/01 21:43:49;;;;;;;31.92;18.88;;;;;;;3.14;99.34;99725.69;10417876;28;20122;-74
2022/01/01 21:48:50;;;;;;;38.95;19.77;;;;;;;2.92;100.00;99662.94;10418026;28;20037;-74
2022/01/01 21:53:51;;;;;;;32.42;17.92;;;;;;;2.71;99.29;99624.50;10415269;28;20037;-75
2022/01/01 21:58:52;;;;;;;32.58;18.23;;;;;;;3.14;99.23;99694.19;10416502;28;20037;-75
2022/01/01 22:03:53;;;;;;;32.10;19.30;;;;;;;3.00;99.83;99678.84;10416423;28;20053;-74
2022/01/01 22:08:53;;;;;;;35.38;19.00;;;;;;;2.14;98.83;99512.50;10416007;28;20045;-75
2022/01/01 22:13:54;;;;;;;34.97;18.83;;;;;;;3.12;99.42;99663.81;10415872;28;20197;-74
2022/01/01 22:18:55;;;;;;;35.95;19.20;;;;;;;2.96;99.51;99653.81;10416367;28;20041;-74
2022/01/01 22:23:56;;;;;;;33.72;17.95;;;;;;;3.14;99.11;99657.44;10416610;28;20060;-74
2022/01/01 22:28:57;;;;;;;33.65;17.63;;;;;;;2.15;99.27;99472.22;10416080;28;20485;-74
2022/01/01 22:33:58;;;;;;;34.53;19.40;;;;;;;3.19;99.21;99618.47;10414984;28;20046;-74
2022/01/01 22:38:58;;;;;;;34.22;18.58;;;;;;;2.99;98.78;99580.06;10416085;28;20034;-74
2022/01/01 22:43:59;;;;;;;34.28;19.42;;;;;;;3.25;99.62;99606.59;10415491;28;20135;-76
2022/01/01 22:49:00;;;;;;;38.00;19.40;;;;;;;2.17;100.00;99396.94;10415265;28;20485;-74
2022/01/01 22:54:03;;;;;;;35.50;18.45;;;;;;;3.28;100.00;99568.75;10414989;28;20482;-74
2022/01/01 22:59:04;;;;;;;40.80;20.15;;;;;;;3.32;100.00;99551.72;10413581;28;20045;-74
2022/01/01 23:04:05;;;;;;;33.00;18.15;;;;;;;3.58;99.32;99576.41;10414744;28;20049;-75
2022/01/01 23:09:06;;;;;;;36.00;18.95;;;;;;;3.13;100.00;99519.31;10414728;28;20417;-75
2022/01/01 23:14:07;;;;;;;35.50;19.90;;;;;;;3.23;100.00;99502.72;10413458;28;20041;-75